createdAt,value
2023-05-12T00:00:58.379Z,10.02
2023-05-12T00:03:27.047Z,10.52
2023-05-12T00:05:55.496Z,10.27
2023-05-12T00:08:23.766Z,8.18
2023-05-12T00:10:52.239Z,9.50
2023-05-12T00:13:20.630Z,8.85
2023-05-12T00:15:49.200Z,7.47
2023-05-12T00:18:17.829Z,9.02
2023-05-12T00:20:46.196Z,9.90
2023-05-12T00:24:47.257Z,6.40
2023-05-12T00:27:15.502Z,8.07
2023-05-12T00:29:43.572Z,5.18
2023-05-12T00:32:11.859Z,6.82
2023-05-12T00:34:40.328Z,5.68
2023-05-12T00:37:08.834Z,5.00
2023-05-12T00:39:36.954Z,7.88
2023-05-12T00:42:05.288Z,9.00
2023-05-12T00:44:33.420Z,8.90
2023-05-12T00:47:01.772Z,7.13
2023-05-12T00:49:30.148Z,6.32
2023-05-12T00:51:59.924Z,6.05
2023-05-12T00:54:28.926Z,6.85
2023-05-12T00:56:58.029Z,6.82
2023-05-12T00:59:26.432Z,10.82
2023-05-12T01:01:54.878Z,9.32
2023-05-12T01:04:23.371Z,7.97
2023-05-12T01:07:05.263Z,7.10
2023-05-12T01:09:34.183Z,6.93
2023-05-12T01:12:03.261Z,6.18
2023-05-12T01:14:33.003Z,6.03
2023-05-12T01:17:04.876Z,6.05
2023-05-12T01:22:12.172Z,4.68
2023-05-12T01:24:49.624Z,6.30
2023-05-12T01:27:20.068Z,4.90
2023-05-12T01:29:50.248Z,5.13
2023-05-12T01:32:20.350Z,4.75
2023-05-12T01:34:48.607Z,4.57
2023-05-12T01:37:16.975Z,5.85
2023-05-12T01:39:45.776Z,6.05
2023-05-12T01:42:19.558Z,6.70
2023-05-12T01:44:48.370Z,5.05
2023-05-12T01:47:17.538Z,5.15
2023-05-12T01:49:53.133Z,5.97
2023-05-12T01:52:21.780Z,9.43
2023-05-12T01:54:49.982Z,11.13
2023-05-12T01:57:19.277Z,9.95
2023-05-12T01:59:48.610Z,8.02
2023-05-12T02:02:16.914Z,9.15
2023-05-12T02:04:45.393Z,7.20
2023-05-12T02:07:13.760Z,5.65
2023-05-12T02:09:42.248Z,6.40
2023-05-12T02:12:10.718Z,12.95
2023-05-12T02:14:39.118Z,10.80
2023-05-12T02:17:07.645Z,12.65
2023-05-12T02:19:35.864Z,10.00
2023-05-12T02:22:04.196Z,9.80
2023-05-12T02:24:32.576Z,7.32
2023-05-12T02:27:00.950Z,7.57
2023-05-12T02:29:29.320Z,6.60
2023-05-12T02:31:57.644Z,7.20
2023-05-12T02:34:25.864Z,5.45
2023-05-12T02:36:54.056Z,6.30
2023-05-12T02:39:22.453Z,5.10
2023-05-12T02:41:50.638Z,7.38
2023-05-12T02:44:19.006Z,10.82
2023-05-12T02:46:47.142Z,10.88
2023-05-12T02:49:15.315Z,10.82
2023-05-12T02:51:43.689Z,11.98
2023-05-12T02:54:11.957Z,12.45
2023-05-12T02:56:40.195Z,13.32
2023-05-12T02:59:08.432Z,11.43
2023-05-12T03:01:36.897Z,11.95
2023-05-12T03:04:05.103Z,9.65
2023-05-12T03:06:33.563Z,16.52
2023-05-12T03:09:01.883Z,19.50
2023-05-12T03:11:30.196Z,20.73
2023-05-12T03:13:58.755Z,23.90
2023-05-12T03:16:26.856Z,20.70
2023-05-12T03:18:55.529Z,19.83
2023-05-12T03:21:23.797Z,17.95
2023-05-12T03:23:52.255Z,20.58
2023-05-12T03:26:20.599Z,20.48
2023-05-12T03:28:49.695Z,19.02
2023-05-12T03:31:18.121Z,15.98
2023-05-12T03:33:46.726Z,17.67
2023-05-12T03:36:14.941Z,16.67
2023-05-12T03:38:43.227Z,16.80
2023-05-12T03:41:14.343Z,14.60
2023-05-12T03:43:42.732Z,14.52
2023-05-12T03:46:11.101Z,13.80
2023-05-12T03:48:39.321Z,15.13
2023-05-12T03:51:08.528Z,13.75
2023-05-12T03:53:36.892Z,14.20
2023-05-12T03:56:05.981Z,13.90
2023-05-12T03:58:34.035Z,14.70
2023-05-12T04:01:02.540Z,15.32
2023-05-12T04:03:31.023Z,13.02
2023-05-12T04:06:03.047Z,9.50
2023-05-12T04:08:31.722Z,8.07
2023-05-12T04:11:01.978Z,6.35
2023-05-12T04:13:31.146Z,5.60
2023-05-12T04:16:00.729Z,7.75
2023-05-12T04:18:29.328Z,5.90
2023-05-12T04:20:57.904Z,6.38
2023-05-12T04:23:26.328Z,6.28
2023-05-12T04:25:54.710Z,7.00
2023-05-12T04:28:22.824Z,6.03
2023-05-12T04:30:51.006Z,7.15
2023-05-12T04:33:19.303Z,9.68
2023-05-12T04:35:47.908Z,7.38
2023-05-12T04:38:17.172Z,7.00
2023-05-12T04:40:45.388Z,7.18
2023-05-12T04:43:59.940Z,8.13
2023-05-12T04:46:02.779Z,7.53
2023-05-12T04:48:31.015Z,6.47
2023-05-12T04:51:02.278Z,5.35
2023-05-12T04:53:30.521Z,5.32
2023-05-12T04:55:58.828Z,5.25
2023-05-12T04:58:29.407Z,5.18
2023-05-12T05:00:58.060Z,4.60
2023-05-12T05:03:26.377Z,4.13
2023-05-12T05:05:54.748Z,4.60
2023-05-12T05:08:23.039Z,3.97
2023-05-12T05:10:52.219Z,4.65
2023-05-12T05:13:20.416Z,4.43
2023-05-12T05:15:55.749Z,4.35
2023-05-12T05:18:25.997Z,5.68
2023-05-12T05:20:58.892Z,5.07
2023-05-12T05:23:27.980Z,5.65
2023-05-12T05:25:56.452Z,7.00
2023-05-12T05:28:24.610Z,4.88
2023-05-12T05:30:52.896Z,5.22
2023-05-12T05:33:21.155Z,5.60
2023-05-12T05:35:49.419Z,3.78
2023-05-12T05:38:18.230Z,3.95
2023-05-12T05:40:53.637Z,2.15
2023-05-12T05:43:24.489Z,2.42
2023-05-12T05:45:53.448Z,2.67
2023-05-12T05:48:22.793Z,1.90
2023-05-12T05:50:52.464Z,1.77
2023-05-12T05:53:23.007Z,1.60
2023-05-12T05:55:52.318Z,2.22
2023-05-12T05:58:20.677Z,2.20
2023-05-12T06:00:49.766Z,2.30
2023-05-12T06:03:18.153Z,2.75
2023-05-12T06:05:46.780Z,1.75
2023-05-12T06:08:14.913Z,2.13
2023-05-12T06:10:43.456Z,2.25
2023-05-12T06:13:11.751Z,2.42
2023-05-12T06:15:40.083Z,2.22
2023-05-12T06:18:08.456Z,2.78
2023-05-12T06:20:36.920Z,2.60
2023-05-12T06:23:05.066Z,2.35
2023-05-12T06:25:33.535Z,3.33
2023-05-12T06:28:02.159Z,3.05
2023-05-12T06:30:30.548Z,2.58
2023-05-12T06:32:58.662Z,3.28
2023-05-12T06:35:27.045Z,4.28
2023-05-12T06:37:55.200Z,4.68
2023-05-12T06:40:23.716Z,3.78
2023-05-12T06:42:51.908Z,3.90
2023-05-12T06:45:21.715Z,3.85
2023-05-12T06:47:50.578Z,4.32
2023-05-12T06:50:19.884Z,4.97
2023-05-12T06:52:52.651Z,5.85
2023-05-12T06:55:21.345Z,5.90
2023-05-12T06:57:49.673Z,8.57
2023-05-12T07:00:18.263Z,18.88
2023-05-12T07:02:46.478Z,28.02
2023-05-12T07:05:15.012Z,23.65
2023-05-12T07:07:43.049Z,19.75
2023-05-12T07:10:11.750Z,18.00
2023-05-12T07:12:40.048Z,18.75
2023-05-12T07:15:09.018Z,15.18
2023-05-12T07:17:37.085Z,10.27
2023-05-12T07:20:05.745Z,8.75
2023-05-12T07:22:34.780Z,8.95
2023-05-12T07:25:04.644Z,10.30
2023-05-12T07:27:32.959Z,9.93
2023-05-12T07:30:01.237Z,10.57
2023-05-12T07:32:29.829Z,10.07
2023-05-12T07:38:08.464Z,8.88
2023-05-12T07:40:36.869Z,8.55
2023-05-12T07:43:04.933Z,9.15
2023-05-12T07:45:33.334Z,7.60
2023-05-12T07:48:01.588Z,5.80
2023-05-12T07:50:29.945Z,5.80
2023-05-12T07:52:58.061Z,4.90
2023-05-12T07:55:26.714Z,4.97
2023-05-12T07:57:54.887Z,6.18
2023-05-12T08:00:23.260Z,5.30
2023-05-12T08:02:51.917Z,5.85
2023-05-12T08:05:21.074Z,5.72
2023-05-12T08:07:49.886Z,6.50
2023-05-12T08:10:18.050Z,7.65
2023-05-12T08:12:46.518Z,7.13
2023-05-12T08:15:14.752Z,8.90
2023-05-12T08:17:43.207Z,10.05
2023-05-12T08:20:11.968Z,9.60
2023-05-12T08:22:40.460Z,9.88
2023-05-12T08:25:11.014Z,9.30
2023-05-12T08:27:40.998Z,7.50
2023-05-12T08:30:09.909Z,7.10
2023-05-12T08:32:38.304Z,6.00
2023-05-12T08:35:06.857Z,7.60
2023-05-12T08:37:35.398Z,7.32
2023-05-12T08:40:03.647Z,6.00
2023-05-12T08:42:49.733Z,5.47
2023-05-12T08:45:18.485Z,5.65
2023-05-12T08:47:50.812Z,5.03
2023-05-12T08:50:24.999Z,4.05
2023-05-12T08:52:53.802Z,7.10
2023-05-12T08:55:27.046Z,5.28
2023-05-12T08:57:59.141Z,5.70
2023-05-12T09:00:29.124Z,3.95
2023-05-12T09:03:00.009Z,4.78
2023-05-12T09:05:30.129Z,5.15
2023-05-12T09:07:59.263Z,4.68
2023-05-12T09:13:05.298Z,4.13
2023-05-12T09:15:41.866Z,5.07
2023-05-12T09:18:10.424Z,9.88
2023-05-12T09:20:38.547Z,7.85
2023-05-12T09:23:18.026Z,5.57
2023-05-12T09:25:46.427Z,9.15
2023-05-12T09:28:15.665Z,7.38
2023-05-12T09:30:43.844Z,8.65
2023-05-12T09:33:15.340Z,6.32
2023-05-12T09:35:45.409Z,4.35
2023-05-12T09:38:15.244Z,4.65
2023-05-12T09:40:43.531Z,8.75
2023-05-12T09:43:15.058Z,7.55
2023-05-12T09:48:13.616Z,4.60
2023-05-12T09:50:49.581Z,4.05
2023-05-12T09:53:19.258Z,5.93
2023-05-12T09:55:49.153Z,3.80
2023-05-12T09:58:21.138Z,4.47
2023-05-12T10:03:40.873Z,3.33
2023-05-12T10:06:15.079Z,5.53
2023-05-12T10:08:49.369Z,5.88
2023-05-12T10:11:18.838Z,4.57
2023-05-12T10:13:48.305Z,5.40
2023-05-12T10:16:16.992Z,3.40
2023-05-12T10:18:45.913Z,4.03
2023-05-12T10:21:15.482Z,3.95
2023-05-12T10:23:45.431Z,3.80
2023-05-12T10:26:14.760Z,4.85
2023-05-12T10:28:43.344Z,4.00
2023-05-12T10:31:11.844Z,3.63
2023-05-12T10:33:40.189Z,3.28
2023-05-12T10:36:18.691Z,5.25
2023-05-12T10:38:49.556Z,3.95
2023-05-12T10:41:18.093Z,4.03
2023-05-12T10:43:51.197Z,6.70
2023-05-12T10:46:23.289Z,3.55
2023-05-12T10:51:26.440Z,5.55
2023-05-12T10:54:00.012Z,3.53
2023-05-12T10:56:52.455Z,3.88
2023-05-12T10:59:24.433Z,3.70
2023-05-12T11:02:14.600Z,3.35
2023-05-12T11:04:54.421Z,3.67
2023-05-12T11:07:24.830Z,6.32
2023-05-12T11:09:57.671Z,5.50
2023-05-12T11:12:29.517Z,4.10
2023-05-12T11:14:59.573Z,4.72
2023-05-12T11:17:27.942Z,5.13
2023-05-12T11:19:56.220Z,3.90
2023-05-12T11:22:25.194Z,5.32
2023-05-12T11:24:54.002Z,6.18
2023-05-12T11:27:23.839Z,3.88
2023-05-12T11:30:00.350Z,5.72
2023-05-12T11:32:29.080Z,5.38
2023-05-12T11:35:07.729Z,4.82
2023-05-12T11:37:39.136Z,23.90
2023-05-12T11:40:21.204Z,7.95
2023-05-12T11:45:22.658Z,6.22
2023-05-12T11:47:51.572Z,7.80
2023-05-12T11:50:26.113Z,5.22
2023-05-12T11:52:54.702Z,4.72
2023-05-12T11:55:24.589Z,4.60
2023-05-12T11:58:04.048Z,5.25
2023-05-12T12:00:35.149Z,4.43
2023-05-12T12:03:15.701Z,4.20
2023-05-12T12:05:57.311Z,4.00
2023-05-12T12:08:25.623Z,4.03
2023-05-12T12:10:53.820Z,3.45
2023-05-12T12:13:23.761Z,4.55
2023-05-12T12:15:52.727Z,4.13
2023-05-12T12:18:21.028Z,3.15
2023-05-12T12:20:52.516Z,4.88
2023-05-12T12:23:20.798Z,4.18
2023-05-12T12:25:49.145Z,3.88
2023-05-12T12:28:17.660Z,4.03
2023-05-12T12:30:45.781Z,3.72
2023-05-12T12:33:14.124Z,3.45
2023-05-12T12:35:42.352Z,4.05
2023-05-12T12:38:10.938Z,3.97
2023-05-12T12:40:39.123Z,3.83
2023-05-12T12:43:07.604Z,4.00
2023-05-12T12:45:35.789Z,3.55
2023-05-12T12:48:04.239Z,3.30
2023-05-12T12:50:32.452Z,3.92
2023-05-12T12:53:00.657Z,3.10
2023-05-12T12:55:29.582Z,3.88
2023-05-12T12:57:58.023Z,3.65
2023-05-12T13:00:26.356Z,9.88
2023-05-12T13:02:54.839Z,7.00
2023-05-12T13:05:23.330Z,7.03
2023-05-12T13:07:51.600Z,8.50
2023-05-12T13:10:19.742Z,5.82
2023-05-12T13:12:48.093Z,4.82
2023-05-12T13:15:17.930Z,4.03
2023-05-12T13:17:47.724Z,4.72
2023-05-12T13:20:16.961Z,5.18
2023-05-12T13:22:45.956Z,5.28
2023-05-12T13:25:14.784Z,5.82
2023-05-12T13:27:43.164Z,5.80
2023-05-12T13:30:13.551Z,4.93
2023-05-12T13:32:42.302Z,6.07
2023-05-12T13:35:10.670Z,6.57
2023-05-12T13:37:38.989Z,8.35
2023-05-12T13:40:08.100Z,21.15
2023-05-12T13:42:36.338Z,4.35
2023-05-12T13:45:04.866Z,4.72
2023-05-12T13:47:36.104Z,4.95
2023-05-12T13:50:04.644Z,4.95
2023-05-12T13:52:32.794Z,5.20
2023-05-12T13:55:01.003Z,7.13
2023-05-12T13:57:29.207Z,6.47
2023-05-12T13:59:57.537Z,7.15
2023-05-12T14:02:25.634Z,5.57
2023-05-12T14:04:54.077Z,6.47
2023-05-12T14:07:22.310Z,8.00
2023-05-12T14:09:52.980Z,7.50
2023-05-12T14:12:21.687Z,8.15
2023-05-12T14:14:50.080Z,7.15
2023-05-12T14:17:18.874Z,6.75
2023-05-12T14:19:47.121Z,5.03
2023-05-12T14:22:25.375Z,4.57
2023-05-12T14:24:54.864Z,6.75
2023-05-12T14:27:23.188Z,5.80
2023-05-12T14:29:51.392Z,8.50
2023-05-12T14:32:19.645Z,17.90
2023-05-12T14:34:47.974Z,21.20
2023-05-12T14:37:16.031Z,31.83
2023-05-12T14:39:44.715Z,30.83
2023-05-12T14:42:12.891Z,13.57
2023-05-12T14:44:40.941Z,9.50
2023-05-12T14:47:09.346Z,7.20
2023-05-12T14:49:37.552Z,7.05
2023-05-12T14:52:05.849Z,15.85
2023-05-12T14:54:34.684Z,13.63
2023-05-12T14:57:02.925Z,13.45
2023-05-12T14:59:31.433Z,9.18
2023-05-12T15:01:59.655Z,12.82
2023-05-12T15:04:28.110Z,9.10
2023-05-12T15:06:56.223Z,6.18
2023-05-12T15:09:24.509Z,6.78
2023-05-12T15:11:52.789Z,7.68
2023-05-12T15:14:22.172Z,7.00
2023-05-12T15:16:50.662Z,6.15
2023-05-12T15:19:19.008Z,11.52
2023-05-12T15:21:47.142Z,8.90
2023-05-12T15:24:15.481Z,5.80
2023-05-12T15:26:43.697Z,5.85
2023-05-12T15:29:12.018Z,8.50
2023-05-12T15:31:40.329Z,5.85
2023-05-12T15:34:08.874Z,6.35
2023-05-12T15:36:37.122Z,7.28
2023-05-12T15:39:05.500Z,5.28
2023-05-12T15:41:34.349Z,6.95
2023-05-12T15:44:02.428Z,5.55
2023-05-12T15:46:30.759Z,5.00
2023-05-12T15:48:59.049Z,5.82
2023-05-12T15:51:27.577Z,6.45
2023-05-12T15:53:55.808Z,5.72
2023-05-12T15:56:23.995Z,6.47
2023-05-12T15:58:52.679Z,9.95
2023-05-12T16:01:20.994Z,6.40
2023-05-12T16:03:53.264Z,6.22
2023-05-12T16:06:21.686Z,11.18
2023-05-12T16:08:50.008Z,7.20
2023-05-12T16:11:18.858Z,4.68
2023-05-12T16:13:47.064Z,5.13
2023-05-12T16:16:15.485Z,5.75
2023-05-12T16:18:43.707Z,5.90
2023-05-12T16:21:12.016Z,6.68
2023-05-12T16:23:40.505Z,5.95
2023-05-12T16:26:08.722Z,5.25
2023-05-12T16:28:36.952Z,5.30
2023-05-12T16:31:05.322Z,6.20
2023-05-12T16:33:33.705Z,6.22
2023-05-12T16:36:01.818Z,10.10
2023-05-12T16:38:30.264Z,6.68
2023-05-12T16:40:58.440Z,6.40
2023-05-12T16:43:26.757Z,5.72
2023-05-12T16:46:01.683Z,6.22
2023-05-12T16:48:30.489Z,7.28
2023-05-12T16:51:03.266Z,6.85
2023-05-12T16:53:32.130Z,6.85
2023-05-12T16:56:00.333Z,9.32
2023-05-12T16:58:30.001Z,6.60
2023-05-12T17:01:02.239Z,6.93
2023-05-12T17:03:30.646Z,5.75
2023-05-12T17:05:58.951Z,8.27
2023-05-12T17:08:27.180Z,8.32
2023-05-12T17:10:55.390Z,6.32
2023-05-12T17:13:23.629Z,7.68
2023-05-12T17:15:52.220Z,7.20
2023-05-12T17:18:20.526Z,5.88
2023-05-12T17:20:48.728Z,5.78
2023-05-12T17:23:16.912Z,4.70
2023-05-12T17:25:45.091Z,5.72
2023-05-12T17:28:13.280Z,7.05
2023-05-12T17:30:41.571Z,9.32
2023-05-12T17:33:09.759Z,10.00
2023-05-12T17:35:37.955Z,10.88
2023-05-12T17:38:06.475Z,8.43
2023-05-12T17:40:35.032Z,12.57
2023-05-12T17:43:03.336Z,13.10
2023-05-12T17:45:31.477Z,14.98
2023-05-12T17:48:00.308Z,21.48
2023-05-12T17:50:28.555Z,30.08
2023-05-12T17:52:56.873Z,20.17
2023-05-12T17:55:25.054Z,25.80
2023-05-12T17:57:53.441Z,36.85
2023-05-12T18:00:21.572Z,36.53
2023-05-12T18:02:49.931Z,27.40
2023-05-12T18:05:18.771Z,23.63
2023-05-12T18:07:47.026Z,22.15
2023-05-12T18:10:15.378Z,25.17
2023-05-12T18:12:43.841Z,20.65
2023-05-12T18:15:12.348Z,18.90
2023-05-12T18:17:41.024Z,17.45
2023-05-12T18:20:10.314Z,19.58
2023-05-12T18:22:38.611Z,21.17
2023-05-12T18:25:07.517Z,14.13
2023-05-12T18:27:35.866Z,10.80
2023-05-12T18:30:04.460Z,16.67
2023-05-12T18:32:32.590Z,29.25
2023-05-12T18:35:01.178Z,37.20
2023-05-12T18:37:29.767Z,28.40
2023-05-12T18:39:58.422Z,27.08
2023-05-12T18:42:26.777Z,29.48
2023-05-12T18:44:55.075Z,27.20
2023-05-12T18:47:23.354Z,28.80
2023-05-12T18:49:51.808Z,27.52
2023-05-12T18:52:20.198Z,26.45
2023-05-12T18:54:49.777Z,20.80
2023-05-12T18:57:21.294Z,56.40
2023-05-12T18:59:49.762Z,35.20
2023-05-12T19:02:17.913Z,40.75
2023-05-12T19:04:46.209Z,18.38
2023-05-12T19:07:14.736Z,13.73
2023-05-12T19:09:43.512Z,17.73
2023-05-12T19:12:12.152Z,21.02
2023-05-12T19:14:41.135Z,43.53
2023-05-12T19:17:09.239Z,41.88
2023-05-12T19:19:37.682Z,19.90
2023-05-12T19:22:06.025Z,15.95
2023-05-12T19:24:35.512Z,18.15
2023-05-12T19:27:06.963Z,51.70
2023-05-12T19:29:35.430Z,65.20
2023-05-12T19:32:03.983Z,47.80
2023-05-12T19:34:32.519Z,33.67
2023-05-12T19:37:01.027Z,22.65
2023-05-12T19:39:29.500Z,34.90
2023-05-12T19:41:57.915Z,20.65
2023-05-12T19:44:26.021Z,16.08
2023-05-12T19:46:55.262Z,12.02
2023-05-12T19:49:23.580Z,16.27
2023-05-12T19:51:52.082Z,67.93
2023-05-12T19:54:20.319Z,42.67
2023-05-12T19:56:48.660Z,18.27
2023-05-12T19:59:17.023Z,16.05
2023-05-12T20:01:46.015Z,15.93
2023-05-12T20:04:14.255Z,14.93
2023-05-12T20:06:42.556Z,16.65
2023-05-12T20:09:11.107Z,15.70
2023-05-12T20:11:39.726Z,16.42
2023-05-12T20:14:07.875Z,14.82
2023-05-12T20:16:36.386Z,22.95
2023-05-12T20:19:04.747Z,29.70
2023-05-12T20:21:33.219Z,25.80
2023-05-12T20:24:01.557Z,23.63
2023-05-12T20:26:29.719Z,23.42
2023-05-12T20:28:58.084Z,20.42
2023-05-12T20:31:27.009Z,19.35
2023-05-12T20:33:55.735Z,20.52
2023-05-12T20:36:24.091Z,19.35
2023-05-12T20:38:52.496Z,20.05
2023-05-12T20:41:20.792Z,18.33
2023-05-12T20:43:49.100Z,19.20
2023-05-12T20:46:17.727Z,18.33
2023-05-12T20:48:46.551Z,25.20
2023-05-12T20:51:15.401Z,20.90
2023-05-12T20:53:43.902Z,16.67
2023-05-12T20:56:13.063Z,22.77
2023-05-12T20:58:42.033Z,25.63
2023-05-12T21:01:10.235Z,22.98
2023-05-12T21:03:38.571Z,18.58
2023-05-12T21:06:07.394Z,17.85
2023-05-12T21:08:35.571Z,21.67
2023-05-12T21:11:04.002Z,20.20
2023-05-12T21:13:32.404Z,21.92
2023-05-12T21:16:00.597Z,25.80
2023-05-12T21:18:29.082Z,32.83
2023-05-12T21:20:57.484Z,20.40
2023-05-12T21:23:25.849Z,24.83
2023-05-12T21:25:54.583Z,31.25
2023-05-12T21:28:22.984Z,20.48
2023-05-12T21:30:51.316Z,22.70
2023-05-12T21:33:19.608Z,26.98
2023-05-12T21:37:46.430Z,26.60
2023-05-12T21:40:14.924Z,27.90
2023-05-12T21:42:43.824Z,24.95
2023-05-12T21:45:12.241Z,27.98
2023-05-12T21:47:40.369Z,26.85
2023-05-12T21:50:08.996Z,27.25
2023-05-12T21:52:37.242Z,28.58
2023-05-12T21:55:05.752Z,27.75
2023-05-12T21:57:33.903Z,29.25
2023-05-12T22:00:02.318Z,33.42
2023-05-12T22:02:37.737Z,31.25
2023-05-12T22:05:06.547Z,24.52
2023-05-12T22:07:34.688Z,31.08
2023-05-12T22:10:03.125Z,23.33
2023-05-12T22:12:31.732Z,26.58
2023-05-12T22:15:00.565Z,20.95
2023-05-12T22:17:28.832Z,17.90
2023-05-12T22:19:57.322Z,17.35
2023-05-12T22:22:25.754Z,14.30
2023-05-12T22:24:54.120Z,13.88
2023-05-12T22:27:22.656Z,14.55
2023-05-12T22:29:50.998Z,11.77
2023-05-12T22:32:19.279Z,12.68
2023-05-12T22:34:48.141Z,10.75
2023-05-12T22:37:16.490Z,10.82
2023-05-12T22:39:45.010Z,10.90
2023-05-12T22:42:13.291Z,11.18
2023-05-12T22:44:41.689Z,11.40
2023-05-12T23:02:27.418Z,8.65
2023-05-12T23:04:55.892Z,8.40
2023-05-12T23:07:24.091Z,8.98
2023-05-12T23:09:52.512Z,8.43
2023-05-12T23:12:20.931Z,7.93
2023-05-12T23:14:49.350Z,7.60
2023-05-12T23:17:17.585Z,7.45
2023-05-12T23:19:46.028Z,7.90
2023-05-12T23:22:14.225Z,5.82
2023-05-12T23:24:42.488Z,6.65
2023-05-12T23:27:11.089Z,6.28
2023-05-12T23:29:39.363Z,6.78
2023-05-12T23:32:07.779Z,7.18
2023-05-12T23:34:36.213Z,5.65
2023-05-12T23:37:04.391Z,7.05
2023-05-12T23:39:32.679Z,6.07
2023-05-12T23:42:01.023Z,5.68
2023-05-12T23:44:29.311Z,6.20
2023-05-12T23:46:57.467Z,8.98
2023-05-12T23:49:25.976Z,7.82
2023-05-12T23:51:54.231Z,8.38
2023-05-12T23:54:22.585Z,7.97
2023-05-12T23:56:51.117Z,9.93
2023-05-12T23:59:19.586Z,8.52
